sensor_id;sensor_type;location;lat;lon;timestamp;pressure;altitude;pressure_sealevel;temperature;humidity
7180;BME280;3631;42.152;24.756;2024-02-21T00:01:31;86474.06;;;-144.30;100.00
7180;BME280;3631;42.152;24.756;2024-02-21T00:03:58;86460.16;;;-144.30;100.00
7180;BME280;3631;42.152;24.756;2024-02-21T00:06:25;86482.03;;;-144.30;100.00
7180;BME280;3631;42.152;24.756;2024-02-21T00:08:54;86454.19;;;-144.30;100.00
7180;BME280;3631;42.152;24.756;2024-02-21T00:11:20;86466.09;;;-144.30;100.00
7180;BME280;3631;42.152;24.756;2024-02-21T00:13:47;86462.13;;;-144.30;100.00
7180;BME280;3631;42.152;24.756;2024-02-21T00:16:15;86535.72;;;-144.30;100.00
7180;BME280;3631;42.152;24.756;2024-02-21T00:18:43;86509.84;;;-144.30;100.00
7180;BME280;3631;42.152;24.756;2024-02-21T00:21:10;86460.16;;;-144.30;100.00
7180;BME280;3631;42.152;24.756;2024-02-21T00:23:43;86454.19;;;-144.30;100.00
7180;BME280;3631;42.152;24.756;2024-02-21T00:26:12;86482.03;;;-144.30;100.00
7180;BME280;3631;42.152;24.756;2024-02-21T00:28:39;86446.22;;;-144.30;100.00
7180;BME280;3631;42.152;24.756;2024-02-21T00:31:06;86474.06;;;-144.30;100.00
7180;BME280;3631;42.152;24.756;2024-02-21T00:33:32;86474.06;;;-144.30;100.00
7180;BME280;3631;42.152;24.756;2024-02-21T00:35:59;86450.19;;;-144.30;100.00
7180;BME280;3631;42.152;24.756;2024-02-21T00:38:26;86446.22;;;-144.30;100.00
7180;BME280;3631;42.152;24.756;2024-02-21T00:40:53;86434.28;;;-144.30;100.00
7180;BME280;3631;42.152;24.756;2024-02-21T00:43:21;86468.09;;;-144.30;100.00
7180;BME280;3631;42.152;24.756;2024-02-21T00:45:49;86501.91;;;-144.30;100.00
7180;BME280;3631;42.152;24.756;2024-02-21T00:48:16;86474.06;;;-144.30;100.00
7180;BME280;3631;42.152;24.756;2024-02-21T00:50:43;86450.19;;;-144.30;100.00
7180;BME280;3631;42.152;24.756;2024-02-21T00:53:10;86418.38;;;-144.30;100.00
7180;BME280;3631;42.152;24.756;2024-02-21T00:55:38;86261.28;;;-144.30;100.00
7180;BME280;3631;42.152;24.756;2024-02-21T00:58:05;86487.97;;;-144.30;100.00
7180;BME280;3631;42.152;24.756;2024-02-21T01:00:34;86482.03;;;-144.30;100.00
7180;BME280;3631;42.152;24.756;2024-02-21T01:03:00;86450.19;;;-144.30;100.00
7180;BME280;3631;42.152;24.756;2024-02-21T01:05:28;86497.94;;;-144.30;100.00
7180;BME280;3631;42.152;24.756;2024-02-21T01:07:55;86462.13;;;-144.30;100.00
7180;BME280;3631;42.152;24.756;2024-02-21T01:10:23;86486.00;;;-144.30;100.00
7180;BME280;3631;42.152;24.756;2024-02-21T01:12:50;86511.84;;;-144.30;100.00
7180;BME280;3631;42.152;24.756;2024-02-21T01:15:17;86497.94;;;-144.30;100.00
7180;BME280;3631;42.152;24.756;2024-02-21T01:17:46;86501.91;;;-144.30;100.00
7180;BME280;3631;42.152;24.756;2024-02-21T01:20:13;86470.09;;;-144.30;100.00
7180;BME280;3631;42.152;24.756;2024-02-21T01:22:40;86489.97;;;-144.30;100.00
7180;BME280;3631;42.152;24.756;2024-02-21T01:25:07;86378.63;;;-144.30;100.00
7180;BME280;3631;42.152;24.756;2024-02-21T01:27:34;86406.44;;;-144.30;100.00
7180;BME280;3631;42.152;24.756;2024-02-21T01:30:01;86454.19;;;-144.30;100.00
7180;BME280;3631;42.152;24.756;2024-02-21T01:32:29;86482.03;;;-144.30;100.00
7180;BME280;3631;42.152;24.756;2024-02-21T01:34:57;86491.97;;;-144.30;100.00
7180;BME280;3631;42.152;24.756;2024-02-21T01:37:24;86426.34;;;-144.30;100.00
7180;BME280;3631;42.152;24.756;2024-02-21T01:39:51;86458.16;;;-144.30;100.00
7180;BME280;3631;42.152;24.756;2024-02-21T01:42:18;86452.19;;;-144.30;100.00
7180;BME280;3631;42.152;24.756;2024-02-21T01:44:44;86410.44;;;-144.30;100.00
7180;BME280;3631;42.152;24.756;2024-02-21T01:47:12;86446.22;;;-144.30;99.83
7180;BME280;3631;42.152;24.756;2024-02-21T01:49:40;86478.03;;;-144.30;99.87
7180;BME280;3631;42.152;24.756;2024-02-21T01:52:09;86450.19;;;-144.30;99.43
7180;BME280;3631;42.152;24.756;2024-02-21T01:54:37;86462.13;;;-144.30;99.23
7180;BME280;3631;42.152;24.756;2024-02-21T01:57:05;86468.09;;;-144.30;99.13
7180;BME280;3631;42.152;24.756;2024-02-21T01:59:32;86446.22;;;-144.30;98.80
7180;BME280;3631;42.152;24.756;2024-02-21T02:02:00;86410.44;;;-144.30;98.33
7180;BME280;3631;42.152;24.756;2024-02-21T02:04:27;86430.31;;;-144.30;97.93
7180;BME280;3631;42.152;24.756;2024-02-21T02:06:54;86424.34;;;-144.30;97.40
7180;BME280;3631;42.152;24.756;2024-02-21T02:09:24;86426.34;;;-144.30;96.55
7180;BME280;3631;42.152;24.756;2024-02-21T02:11:51;86426.34;;;-144.30;96.39
7180;BME280;3631;42.152;24.756;2024-02-21T02:14:18;86434.28;;;-144.30;96.13
7180;BME280;3631;42.152;24.756;2024-02-21T02:16:46;86426.34;;;-144.30;95.19
7180;BME280;3631;42.152;24.756;2024-02-21T02:19:14;86430.31;;;-144.30;95.30
7180;BME280;3631;42.152;24.756;2024-02-21T02:21:45;86406.44;;;-144.30;95.79
7180;BME280;3631;42.152;24.756;2024-02-21T02:24:15;86424.34;;;-144.30;96.93
7180;BME280;3631;42.152;24.756;2024-02-21T02:26:42;86454.19;;;-144.30;97.51
7180;BME280;3631;42.152;24.756;2024-02-21T02:29:09;86450.19;;;-144.30;97.99
7180;BME280;3631;42.152;24.756;2024-02-21T02:31:36;86474.06;;;-144.30;97.87
7180;BME280;3631;42.152;24.756;2024-02-21T02:34:04;86442.25;;;-144.30;98.14
7180;BME280;3631;42.152;24.756;2024-02-21T02:36:33;86442.25;;;-144.30;98.78
7180;BME280;3631;42.152;24.756;2024-02-21T02:39:00;86442.25;;;-144.30;99.89
7180;BME280;3631;42.152;24.756;2024-02-21T02:41:28;86505.88;;;-144.30;99.74
7180;BME280;3631;42.152;24.756;2024-02-21T02:43:55;86487.97;;;-144.30;100.00
7180;BME280;3631;42.152;24.756;2024-02-21T02:46:21;86486.00;;;-144.30;100.00
7180;BME280;3631;42.152;24.756;2024-02-21T02:48:49;86486.00;;;-144.30;100.00
7180;BME280;3631;42.152;24.756;2024-02-21T02:51:15;86493.94;;;-144.30;100.00
7180;BME280;3631;42.152;24.756;2024-02-21T02:53:43;86482.03;;;-144.30;100.00
7180;BME280;3631;42.152;24.756;2024-02-21T02:56:14;86464.13;;;-144.30;100.00
7180;BME280;3631;42.152;24.756;2024-02-21T02:58:42;86487.97;;;-144.30;100.00
7180;BME280;3631;42.152;24.756;2024-02-21T03:01:09;86410.44;;;-144.30;100.00
7180;BME280;3631;42.152;24.756;2024-02-21T03:03:36;86474.06;;;-144.30;100.00
7180;BME280;3631;42.152;24.756;2024-02-21T03:06:03;86466.09;;;-144.30;100.00
7180;BME280;3631;42.152;24.756;2024-02-21T03:08:31;86460.16;;;-144.30;100.00
7180;BME280;3631;42.152;24.756;2024-02-21T03:10:58;86446.22;;;-144.30;100.00
7180;BME280;3631;42.152;24.756;2024-02-21T03:13:25;86482.03;;;-144.30;100.00
7180;BME280;3631;42.152;24.756;2024-02-21T03:15:54;86456.16;;;-144.30;100.00
7180;BME280;3631;42.152;24.756;2024-02-21T03:18:20;86501.91;;;-144.30;100.00
7180;BME280;3631;42.152;24.756;2024-02-21T03:20:48;86503.91;;;-144.30;100.00
7180;BME280;3631;42.152;24.756;2024-02-21T03:23:14;86406.44;;;-144.30;100.00
7180;BME280;3631;42.152;24.756;2024-02-21T03:25:41;86478.03;;;-144.30;100.00
7180;BME280;3631;42.152;24.756;2024-02-21T03:28:08;86476.06;;;-144.30;100.00
7180;BME280;3631;42.152;24.756;2024-02-21T03:30:35;86491.97;;;-144.30;100.00
7180;BME280;3631;42.152;24.756;2024-02-21T03:33:04;86454.19;;;-144.30;100.00
7180;BME280;3631;42.152;24.756;2024-02-21T03:35:31;86503.91;;;-144.30;100.00
7180;BME280;3631;42.152;24.756;2024-02-21T03:37:57;86464.13;;;-144.30;100.00
7180;BME280;3631;42.152;24.756;2024-02-21T03:40:24;86476.06;;;-144.30;100.00
7180;BME280;3631;42.152;24.756;2024-02-21T03:42:51;86497.94;;;-144.30;100.00
7180;BME280;3631;42.152;24.756;2024-02-21T03:45:18;86454.19;;;-144.30;100.00
7180;BME280;3631;42.152;24.756;2024-02-21T03:47:45;86448.22;;;-144.30;100.00
7180;BME280;3631;42.152;24.756;2024-02-21T03:50:13;86458.16;;;-144.30;100.00
7180;BME280;3631;42.152;24.756;2024-02-21T03:52:40;86474.06;;;-144.30;100.00
7180;BME280;3631;42.152;24.756;2024-02-21T03:55:08;86493.94;;;-144.30;100.00
7180;BME280;3631;42.152;24.756;2024-02-21T03:57:34;86478.03;;;-144.30;100.00
7180;BME280;3631;42.152;24.756;2024-02-21T04:00:02;86478.03;;;-144.30;100.00
7180;BME280;3631;42.152;24.756;2024-02-21T04:02:29;86493.94;;;-144.30;100.00
7180;BME280;3631;42.152;24.756;2024-02-21T04:04:56;86519.81;;;-144.30;100.00
7180;BME280;3631;42.152;24.756;2024-02-21T04:07:24;86495.94;;;-144.30;100.00
7180;BME280;3631;42.152;24.756;2024-02-21T04:09:51;86513.84;;;-144.30;100.00
7180;BME280;3631;42.152;24.756;2024-02-21T04:12:18;86482.03;;;-144.30;100.00
7180;BME280;3631;42.152;24.756;2024-02-21T04:14:45;86493.94;;;-144.30;100.00
7180;BME280;3631;42.152;24.756;2024-02-21T04:17:12;86466.09;;;-144.30;100.00
7180;BME280;3631;42.152;24.756;2024-02-21T04:19:37;86472.06;;;-144.30;100.00
7180;BME280;3631;42.152;24.756;2024-02-21T04:22:04;86466.09;;;-144.30;100.00
7180;BME280;3631;42.152;24.756;2024-02-21T04:24:33;86541.69;;;-144.30;100.00
7180;BME280;3631;42.152;24.756;2024-02-21T04:26:59;86493.94;;;-144.30;100.00
7180;BME280;3631;42.152;24.756;2024-02-21T04:29:26;86521.78;;;-144.30;100.00
7180;BME280;3631;42.152;24.756;2024-02-21T04:31:54;86513.84;;;-144.30;100.00
7180;BME280;3631;42.152;24.756;2024-02-21T04:34:21;86521.78;;;-144.30;100.00
7180;BME280;3631;42.152;24.756;2024-02-21T04:36:48;86519.81;;;-144.30;100.00
7180;BME280;3631;42.152;24.756;2024-02-21T04:39:15;86547.66;;;-144.30;100.00
7180;BME280;3631;42.152;24.756;2024-02-21T04:41:43;86549.63;;;-144.30;100.00
7180;BME280;3631;42.152;24.756;2024-02-21T04:44:10;86509.84;;;-144.30;100.00
7180;BME280;3631;42.152;24.756;2024-02-21T04:46:36;86529.75;;;-144.30;100.00
7180;BME280;3631;42.152;24.756;2024-02-21T04:49:03;86535.72;;;-144.30;100.00
7180;BME280;3631;42.152;24.756;2024-02-21T04:51:30;86486.00;;;-144.30;100.00
7180;BME280;3631;42.152;24.756;2024-02-21T04:54:00;86515.81;;;-144.30;100.00
7180;BME280;3631;42.152;24.756;2024-02-21T04:56:27;86519.81;;;-144.30;100.00
7180;BME280;3631;42.152;24.756;2024-02-21T04:58:55;86531.72;;;-144.30;100.00
7180;BME280;3631;42.152;24.756;2024-02-21T05:01:22;86541.69;;;-144.30;100.00
7180;BME280;3631;42.152;24.756;2024-02-21T05:03:49;86545.66;;;-144.30;100.00
7180;BME280;3631;42.152;24.756;2024-02-21T05:06:16;86559.56;;;-144.30;100.00
7180;BME280;3631;42.152;24.756;2024-02-21T05:08:44;86513.84;;;-144.30;100.00
7180;BME280;3631;42.152;24.756;2024-02-21T05:11:11;86535.72;;;-144.30;100.00
7180;BME280;3631;42.152;24.756;2024-02-21T05:13:38;86557.59;;;-144.30;100.00
7180;BME280;3631;42.152;24.756;2024-02-21T05:16:06;86553.59;;;-144.30;100.00
7180;BME280;3631;42.152;24.756;2024-02-21T05:18:33;86533.72;;;-144.30;100.00
7180;BME280;3631;42.152;24.756;2024-02-21T05:21:01;86583.44;;;-144.30;100.00
7180;BME280;3631;42.152;24.756;2024-02-21T05:23:28;86533.72;;;-144.30;100.00
7180;BME280;3631;42.152;24.756;2024-02-21T05:25:54;86635.13;;;-144.30;100.00
7180;BME280;3631;42.152;24.756;2024-02-21T05:28:21;86565.53;;;-144.30;100.00
7180;BME280;3631;42.152;24.756;2024-02-21T05:30:48;86553.59;;;-144.30;100.00
7180;BME280;3631;42.152;24.756;2024-02-21T05:33:16;86553.59;;;-144.30;100.00
7180;BME280;3631;42.152;24.756;2024-02-21T05:35:47;86525.75;;;-144.30;100.00
7180;BME280;3631;42.152;24.756;2024-02-21T05:38:14;86545.66;;;-144.30;100.00
7180;BME280;3631;42.152;24.756;2024-02-21T05:40:41;86557.59;;;-144.30;100.00
7180;BME280;3631;42.152;24.756;2024-02-21T05:43:08;86541.69;;;-144.30;100.00
7180;BME280;3631;42.152;24.756;2024-02-21T05:45:35;86515.81;;;-144.30;100.00
7180;BME280;3631;42.152;24.756;2024-02-21T05:48:02;86541.69;;;-144.30;100.00
7180;BME280;3631;42.152;24.756;2024-02-21T05:50:31;86511.84;;;-144.30;100.00
7180;BME280;3631;42.152;24.756;2024-02-21T05:52:58;86505.88;;;-144.30;100.00
7180;BME280;3631;42.152;24.756;2024-02-21T05:55:25;86551.63;;;-144.30;100.00
7180;BME280;3631;42.152;24.756;2024-02-21T05:57:53;86476.06;;;-144.30;100.00
7180;BME280;3631;42.152;24.756;2024-02-21T06:00:21;86515.81;;;-144.30;100.00
7180;BME280;3631;42.152;24.756;2024-02-21T06:02:47;86517.81;;;-144.30;100.00
7180;BME280;3631;42.152;24.756;2024-02-21T06:05:15;86529.75;;;-144.30;100.00
7180;BME280;3631;42.152;24.756;2024-02-21T06:07:43;86470.09;;;-144.30;100.00
7180;BME280;3631;42.152;24.756;2024-02-21T06:10:10;86545.66;;;-144.30;100.00
7180;BME280;3631;42.152;24.756;2024-02-21T06:12:37;86509.84;;;-144.30;100.00
7180;BME280;3631;42.152;24.756;2024-02-21T06:15:05;86486.00;;;-144.30;100.00
7180;BME280;3631;42.152;24.756;2024-02-21T06:17:32;86446.22;;;-144.30;100.00
7180;BME280;3631;42.152;24.756;2024-02-21T06:19:59;86450.19;;;-144.30;100.00
7180;BME280;3631;42.152;24.756;2024-02-21T06:22:26;86450.19;;;-144.30;100.00
7180;BME280;3631;42.152;24.756;2024-02-21T06:24:54;86482.03;;;-144.30;100.00
7180;BME280;3631;42.152;24.756;2024-02-21T06:27:21;86418.38;;;-144.30;99.68
7180;BME280;3631;42.152;24.756;2024-02-21T06:29:49;86388.56;;;-144.30;99.60
7180;BME280;3631;42.152;24.756;2024-02-21T06:32:16;86454.19;;;-144.30;99.32
7180;BME280;3631;42.152;24.756;2024-02-21T06:34:43;86384.59;;;-144.30;98.89
7180;BME280;3631;42.152;24.756;2024-02-21T06:37:10;86366.69;;;-144.30;98.45
7180;BME280;3631;42.152;24.756;2024-02-21T06:39:37;86422.38;;;-144.30;97.43
7180;BME280;3631;42.152;24.756;2024-02-21T06:42:07;86358.72;;;-144.30;97.89
7180;BME280;3631;42.152;24.756;2024-02-21T06:44:34;86394.53;;;-144.30;97.36
7180;BME280;3631;42.152;24.756;2024-02-21T06:47:05;86372.66;;;-144.30;97.41
7180;BME280;3631;42.152;24.756;2024-02-21T06:49:33;86324.94;;;-144.30;95.76
7180;BME280;3631;42.152;24.756;2024-02-21T06:52:00;86309.03;;;-144.30;94.31
7180;BME280;3631;42.152;24.756;2024-02-21T06:54:27;86275.22;;;-144.30;94.29
7180;BME280;3631;42.152;24.756;2024-02-21T06:56:54;86313.00;;;-144.30;93.10
7180;BME280;3631;42.152;24.756;2024-02-21T06:59:22;86279.19;;;-144.30;92.45
7180;BME280;3631;42.152;24.756;2024-02-21T07:01:53;86255.34;;;-144.30;91.58
7180;BME280;3631;42.152;24.756;2024-02-21T07:04:20;86259.31;;;-144.30;90.91
7180;BME280;3631;42.152;24.756;2024-02-21T07:06:48;86271.25;;;-144.30;91.19
7180;BME280;3631;42.152;24.756;2024-02-21T07:09:14;86235.44;;;-144.30;90.59
7180;BME280;3631;42.152;24.756;2024-02-21T07:11:41;86213.56;;;-144.30;89.80
7180;BME280;3631;42.152;24.756;2024-02-21T07:14:08;86235.44;;;-144.30;88.92
7180;BME280;3631;42.152;24.756;2024-02-21T07:16:36;86207.59;;;-144.30;87.84
7180;BME280;3631;42.152;24.756;2024-02-21T07:19:03;86205.63;;;-144.30;86.94
7180;BME280;3631;42.152;24.756;2024-02-21T07:21:30;86130.06;;;-144.30;84.96
7180;BME280;3631;42.152;24.756;2024-02-21T07:23:57;86120.13;;;-144.30;84.53
7180;BME280;3631;42.152;24.756;2024-02-21T07:26:24;86116.16;;;-144.30;84.38
7180;BME280;3631;42.152;24.756;2024-02-21T07:28:51;86108.19;;;-144.30;83.46
7180;BME280;3631;42.152;24.756;2024-02-21T07:31:18;86094.28;;;-144.30;82.84
7180;BME280;3631;42.152;24.756;2024-02-21T07:33:46;86060.47;;;-144.30;81.44
7180;BME280;3631;42.152;24.756;2024-02-21T07:36:15;86016.72;;;-144.30;80.75
7180;BME280;3631;42.152;24.756;2024-02-21T07:38:42;86004.78;;;-144.30;79.22
7180;BME280;3631;42.152;24.756;2024-02-21T07:41:09;86034.63;;;-144.30;77.95
7180;BME280;3631;42.152;24.756;2024-02-21T07:43:36;86038.59;;;-144.30;78.60
7180;BME280;3631;42.152;24.756;2024-02-21T07:46:03;86064.44;;;-144.30;78.85
7180;BME280;3631;42.152;24.756;2024-02-21T07:48:30;86275.22;;;-144.30;78.51
7180;BME280;3631;42.152;24.756;2024-02-21T07:50:58;86036.59;;;-144.30;79.03
7180;BME280;3631;42.152;24.756;2024-02-21T07:53:25;86016.72;;;-144.30;79.27
7180;BME280;3631;42.152;24.756;2024-02-21T07:55:52;86006.78;;;-144.30;79.30
7180;BME280;3631;42.152;24.756;2024-02-21T07:58:19;85998.84;;;-144.30;78.13
7180;BME280;3631;42.152;24.756;2024-02-21T08:00:46;86006.78;;;-144.30;77.94
7180;BME280;3631;42.152;24.756;2024-02-21T08:03:13;85967.03;;;-144.30;77.67
7180;BME280;3631;42.152;24.756;2024-02-21T08:05:40;85953.09;;;-144.30;77.85
7180;BME280;3631;42.152;24.756;2024-02-21T08:08:09;86006.78;;;-144.30;77.14
7180;BME280;3631;42.152;24.756;2024-02-21T08:10:36;85976.97;;;-144.30;77.64
7180;BME280;3631;42.152;24.756;2024-02-21T08:13:03;85841.75;;;-144.30;76.89
7180;BME280;3631;42.152;24.756;2024-02-21T08:15:30;85963.03;;;-144.30;76.37
7180;BME280;3631;42.152;24.756;2024-02-21T08:17:57;85963.03;;;-144.30;75.55
7180;BME280;3631;42.152;24.756;2024-02-21T08:20:26;85939.19;;;-144.30;75.95
7180;BME280;3631;42.152;24.756;2024-02-21T08:22:53;85939.19;;;-144.30;75.63
7180;BME280;3631;42.152;24.756;2024-02-21T08:25:22;85929.25;;;-144.30;76.36
7180;BME280;3631;42.152;24.756;2024-02-21T08:27:49;85949.13;;;-144.30;76.45
7180;BME280;3631;42.152;24.756;2024-02-21T08:30:17;85953.09;;;-144.30;75.86
7180;BME280;3631;42.152;24.756;2024-02-21T08:32:44;85998.84;;;-144.30;75.78
7180;BME280;3631;42.152;24.756;2024-02-21T08:35:10;85990.88;;;-144.30;75.88
7180;BME280;3631;42.152;24.756;2024-02-21T08:37:38;85945.16;;;-144.30;74.43
7180;BME280;3631;42.152;24.756;2024-02-21T08:40:06;85996.84;;;-144.30;74.48
7180;BME280;3631;42.152;24.756;2024-02-21T08:42:36;85971.00;;;-144.30;73.95
7180;BME280;3631;42.152;24.756;2024-02-21T08:45:06;85955.09;;;-144.30;73.71
7180;BME280;3631;42.152;24.756;2024-02-21T08:47:33;85921.28;;;-144.30;73.26
7180;BME280;3631;42.152;24.756;2024-02-21T08:50:01;85931.22;;;-144.30;72.22
7180;BME280;3631;42.152;24.756;2024-02-21T08:52:31;85949.13;;;-144.30;72.64
7180;BME280;3631;42.152;24.756;2024-02-21T08:54:58;85953.09;;;-144.30;72.45
7180;BME280;3631;42.152;24.756;2024-02-21T08:57:25;85905.38;;;-144.30;72.90
7180;BME280;3631;42.152;24.756;2024-02-21T08:59:53;85945.16;;;-144.30;73.43
7180;BME280;3631;42.152;24.756;2024-02-21T09:02:20;85953.09;;;-144.30;73.51
7180;BME280;3631;42.152;24.756;2024-02-21T09:04:47;85937.19;;;-144.30;73.52
7180;BME280;3631;42.152;24.756;2024-02-21T09:07:14;85953.09;;;-144.30;73.17
7180;BME280;3631;42.152;24.756;2024-02-21T09:09:41;85961.06;;;-144.30;73.32
7180;BME280;3631;42.152;24.756;2024-02-21T09:12:08;85945.16;;;-144.30;74.02
7180;BME280;3631;42.152;24.756;2024-02-21T09:14:37;85971.00;;;-144.30;73.95
7180;BME280;3631;42.152;24.756;2024-02-21T09:17:05;85967.03;;;-144.30;73.24
7180;BME280;3631;42.152;24.756;2024-02-21T09:19:34;85969.00;;;-144.30;73.63
7180;BME280;3631;42.152;24.756;2024-02-21T09:22:02;85937.19;;;-144.30;72.29
7180;BME280;3631;42.152;24.756;2024-02-21T09:24:28;85967.03;;;-144.30;71.93
7180;BME280;3631;42.152;24.756;2024-02-21T09:26:55;85959.06;;;-144.30;71.06
7180;BME280;3631;42.152;24.756;2024-02-21T09:29:22;85982.94;;;-144.30;71.47
7180;BME280;3631;42.152;24.756;2024-02-21T09:31:49;85955.09;;;-144.30;71.88
7180;BME280;3631;42.152;24.756;2024-02-21T09:34:17;85951.13;;;-144.30;72.54
7180;BME280;3631;42.152;24.756;2024-02-21T09:36:44;85990.88;;;-144.30;71.88
7180;BME280;3631;42.152;24.756;2024-02-21T09:39:11;86010.75;;;-144.30;71.91
7180;BME280;3631;42.152;24.756;2024-02-21T09:41:45;85998.84;;;-144.30;72.32
7180;BME280;3631;42.152;24.756;2024-02-21T09:44:13;86000.81;;;-144.30;72.78
7180;BME280;3631;42.152;24.756;2024-02-21T09:46:51;85992.88;;;-144.30;73.24
7180;BME280;3631;42.152;24.756;2024-02-21T09:49:29;86012.75;;;-144.30;73.29
7180;BME280;3631;42.152;24.756;2024-02-21T09:51:57;86026.66;;;-144.30;73.92
7180;BME280;3631;42.152;24.756;2024-02-21T09:54:28;86014.75;;;-144.30;74.14
7180;BME280;3631;42.152;24.756;2024-02-21T09:56:55;86018.72;;;-144.30;74.41
7180;BME280;3631;42.152;24.756;2024-02-21T09:59:22;85982.94;;;-144.30;72.57
7180;BME280;3631;42.152;24.756;2024-02-21T10:01:50;85873.56;;;-144.30;72.83
7180;BME280;3631;42.152;24.756;2024-02-21T10:04:17;85996.84;;;-144.30;72.43
7180;BME280;3631;42.152;24.756;2024-02-21T10:06:46;85982.94;;;-144.30;72.47
7180;BME280;3631;42.152;24.756;2024-02-21T10:09:20;86000.81;;;-144.30;72.81
7180;BME280;3631;42.152;24.756;2024-02-21T10:11:48;85996.84;;;-144.30;71.96
7180;BME280;3631;42.152;24.756;2024-02-21T10:14:15;85915.31;;;-144.30;72.15
7180;BME280;3631;42.152;24.756;2024-02-21T10:16:43;86056.50;;;-144.30;72.54
7180;BME280;3631;42.152;24.756;2024-02-21T10:19:18;86016.72;;;-144.30;72.04
7180;BME280;3631;42.152;24.756;2024-02-21T10:22:01;86390.53;;;-144.30;71.99
7180;BME280;3631;42.152;24.756;2024-02-21T10:24:29;86048.53;;;-144.30;72.08
7180;BME280;3631;42.152;24.756;2024-02-21T10:27:01;86016.72;;;-144.30;71.69
7180;BME280;3631;42.152;24.756;2024-02-21T10:29:28;85996.84;;;-144.30;71.69
7180;BME280;3631;42.152;24.756;2024-02-21T10:32:04;85990.88;;;-144.30;70.70
7180;BME280;3631;42.152;24.756;2024-02-21T10:34:31;86010.75;;;-144.30;69.67
7180;BME280;3631;42.152;24.756;2024-02-21T10:37:01;86046.56;;;-144.30;69.37
7180;BME280;3631;42.152;24.756;2024-02-21T10:39:29;85972.97;;;-144.30;69.53
7180;BME280;3631;42.152;24.756;2024-02-21T10:41:59;86012.75;;;-144.30;69.42
7180;BME280;3631;42.152;24.756;2024-02-21T10:44:28;85947.13;;;-144.30;68.43
7180;BME280;3631;42.152;24.756;2024-02-21T10:46:56;86575.47;;;-144.30;67.73
7180;BME280;3631;42.152;24.756;2024-02-21T10:49:24;85972.97;;;-144.30;62.39
7180;BME280;3631;42.152;24.756;2024-02-21T10:51:55;85957.06;;;-144.30;62.44
7180;BME280;3631;42.152;24.756;2024-02-21T10:54:41;85974.97;;;-144.30;61.64
7180;BME280;3631;42.152;24.756;2024-02-21T10:57:12;85953.09;;;-144.30;61.43
7180;BME280;3631;42.152;24.756;2024-02-21T10:59:40;85959.06;;;-144.30;61.50
7180;BME280;3631;42.152;24.756;2024-02-21T11:02:07;85990.88;;;-144.30;61.42
7180;BME280;3631;42.152;24.756;2024-02-21T11:04:36;85957.06;;;-144.30;60.52
7180;BME280;3631;42.152;24.756;2024-02-21T11:07:03;85935.22;;;-144.30;60.24
7180;BME280;3631;42.152;24.756;2024-02-21T11:09:32;85859.66;;;-144.30;59.27
7180;BME280;3631;42.152;24.756;2024-02-21T11:12:02;85917.31;;;-144.30;58.98
7180;BME280;3631;42.152;24.756;2024-02-21T11:14:30;85931.22;;;-144.30;59.36
7180;BME280;3631;42.152;24.756;2024-02-21T11:16:58;85833.81;;;-144.30;59.34
7180;BME280;3631;42.152;24.756;2024-02-21T11:19:26;85939.19;;;-144.30;59.30
7180;BME280;3631;42.152;24.756;2024-02-21T11:21:54;85897.44;;;-144.30;58.94
7180;BME280;3631;42.152;24.756;2024-02-21T11:24:29;85917.31;;;-144.30;58.19
7180;BME280;3631;42.152;24.756;2024-02-21T11:26:57;85909.34;;;-144.30;58.50
7180;BME280;3631;42.152;24.756;2024-02-21T11:29:42;85883.50;;;-144.30;58.37
7180;BME280;3631;42.152;24.756;2024-02-21T11:32:09;85899.41;;;-144.30;58.35
7180;BME280;3631;42.152;24.756;2024-02-21T11:34:37;85909.34;;;-144.30;58.16
7180;BME280;3631;42.152;24.756;2024-02-21T11:37:13;85901.41;;;-144.30;58.40
7180;BME280;3631;42.152;24.756;2024-02-21T11:39:41;85813.94;;;-144.30;59.01
7180;BME280;3631;42.152;24.756;2024-02-21T11:42:09;85921.28;;;-144.30;58.82
7180;BME280;3631;42.152;24.756;2024-02-21T11:44:36;85901.41;;;-144.30;58.01
7180;BME280;3631;42.152;24.756;2024-02-21T11:47:06;85885.50;;;-144.30;57.44
7180;BME280;3631;42.152;24.756;2024-02-21T11:49:36;85790.06;;;-144.30;56.72
7180;BME280;3631;42.152;24.756;2024-02-21T11:52:04;85907.38;;;-144.30;56.62
7180;BME280;3631;42.152;24.756;2024-02-21T11:54:31;85881.53;;;-144.30;56.44
7180;BME280;3631;42.152;24.756;2024-02-21T11:56:58;85885.50;;;-144.30;56.39
7180;BME280;3631;42.152;24.756;2024-02-21T11:59:25;85861.63;;;-144.30;56.75
7180;BME280;3631;42.152;24.756;2024-02-21T12:01:53;85853.69;;;-144.30;56.45
7180;BME280;3631;42.152;24.756;2024-02-21T12:04:21;85903.41;;;-144.30;56.48
7180;BME280;3631;42.152;24.756;2024-02-21T12:06:49;85847.72;;;-144.30;56.20
7180;BME280;3631;42.152;24.756;2024-02-21T12:09:16;85893.44;;;-144.30;55.75
7180;BME280;3631;42.152;24.756;2024-02-21T12:11:43;85827.84;;;-144.30;56.07
7180;BME280;3631;42.152;24.756;2024-02-21T12:14:10;85853.69;;;-144.30;55.93
7180;BME280;3631;42.152;24.756;2024-02-21T12:16:37;85905.38;;;-144.30;55.73
7180;BME280;3631;42.152;24.756;2024-02-21T12:19:04;85895.44;;;-144.30;55.44
7180;BME280;3631;42.152;24.756;2024-02-21T12:21:33;85903.41;;;-144.30;55.25
7180;BME280;3631;42.152;24.756;2024-02-21T12:24:11;85903.41;;;-144.30;55.27
7180;BME280;3631;42.152;24.756;2024-02-21T12:26:39;85893.44;;;-144.30;55.10
7180;BME280;3631;42.152;24.756;2024-02-21T12:29:06;85889.47;;;-144.30;55.44
7180;BME280;3631;42.152;24.756;2024-02-21T12:31:35;85857.66;;;-144.30;55.21
7180;BME280;3631;42.152;24.756;2024-02-21T12:34:01;85885.50;;;-144.30;55.08
7180;BME280;3631;42.152;24.756;2024-02-21T12:36:29;85857.66;;;-144.30;54.32
7180;BME280;3631;42.152;24.756;2024-02-21T12:38:57;85867.59;;;-144.30;54.23
7180;BME280;3631;42.152;24.756;2024-02-21T12:41:24;85909.34;;;-144.30;54.71
7180;BME280;3631;42.152;24.756;2024-02-21T12:43:52;85861.63;;;-144.30;54.38
7180;BME280;3631;42.152;24.756;2024-02-21T12:46:19;85905.38;;;-144.30;54.49
7180;BME280;3631;42.152;24.756;2024-02-21T12:48:46;85883.50;;;-144.30;54.62